sensor_id;sensor_type;location;lat;lon;timestamp;P1;durP1;ratioP1;P2;durP2;ratioP2
11651;SDS011;5882;48.818;9.114;2022-11-20T00:01:15;4.65;;;4.10;;
11651;SDS011;5882;48.818;9.114;2022-11-20T00:03:44;5.13;;;4.13;;
11651;SDS011;5882;48.818;9.114;2022-11-20T00:06:12;6.32;;;4.28;;
11651;SDS011;5882;48.818;9.114;2022-11-20T00:08:40;7.43;;;4.28;;
11651;SDS011;5882;48.818;9.114;2022-11-20T00:11:07;5.47;;;4.13;;
11651;SDS011;5882;48.818;9.114;2022-11-20T00:13:34;5.65;;;3.78;;
11651;SDS011;5882;48.818;9.114;2022-11-20T00:16:02;6.13;;;4.95;;
11651;SDS011;5882;48.818;9.114;2022-11-20T00:18:28;7.18;;;5.47;;
11651;SDS011;5882;48.818;9.114;2022-11-20T00:21:00;6.47;;;4.60;;
11651;SDS011;5882;48.818;9.114;2022-11-20T00:23:26;5.38;;;4.32;;
11651;SDS011;5882;48.818;9.114;2022-11-20T00:25:54;7.55;;;4.57;;
11651;SDS011;5882;48.818;9.114;2022-11-20T00:28:21;3.95;;;3.50;;
11651;SDS011;5882;48.818;9.114;2022-11-20T00:30:47;6.07;;;4.50;;
11651;SDS011;5882;48.818;9.114;2022-11-20T00:33:14;5.55;;;4.00;;
11651;SDS011;5882;48.818;9.114;2022-11-20T00:35:40;5.13;;;3.78;;
11651;SDS011;5882;48.818;9.114;2022-11-20T00:38:07;5.57;;;4.45;;
11651;SDS011;5882;48.818;9.114;2022-11-20T00:40:33;4.25;;;3.53;;
11651;SDS011;5882;48.818;9.114;2022-11-20T00:45:57;5.13;;;3.30;;
11651;SDS011;5882;48.818;9.114;2022-11-20T00:48:24;3.92;;;3.45;;
11651;SDS011;5882;48.818;9.114;2022-11-20T00:50:50;4.28;;;3.33;;
11651;SDS011;5882;48.818;9.114;2022-11-20T00:53:17;4.35;;;3.45;;
11651;SDS011;5882;48.818;9.114;2022-11-20T00:55:51;6.88;;;5.45;;
11651;SDS011;5882;48.818;9.114;2022-11-20T00:58:18;5.88;;;4.68;;
11651;SDS011;5882;48.818;9.114;2022-11-20T01:00:45;5.30;;;3.88;;
11651;SDS011;5882;48.818;9.114;2022-11-20T01:03:13;4.82;;;3.70;;
11651;SDS011;5882;48.818;9.114;2022-11-20T01:05:39;4.35;;;3.70;;
11651;SDS011;5882;48.818;9.114;2022-11-20T01:08:06;2.90;;;2.60;;
11651;SDS011;5882;48.818;9.114;2022-11-20T01:10:32;2.50;;;2.30;;
11651;SDS011;5882;48.818;9.114;2022-11-20T01:12:59;2.30;;;2.10;;
11651;SDS011;5882;48.818;9.114;2022-11-20T01:15:39;2.60;;;2.40;;
11651;SDS011;5882;48.818;9.114;2022-11-20T01:18:05;2.92;;;2.63;;
11651;SDS011;5882;48.818;9.114;2022-11-20T01:20:35;3.55;;;3.22;;
11651;SDS011;5882;48.818;9.114;2022-11-20T01:23:02;3.83;;;2.80;;
11651;SDS011;5882;48.818;9.114;2022-11-20T01:25:28;2.88;;;2.58;;
11651;SDS011;5882;48.818;9.114;2022-11-20T01:27:55;3.42;;;3.13;;
11651;SDS011;5882;48.818;9.114;2022-11-20T01:30:21;3.03;;;2.53;;
11651;SDS011;5882;48.818;9.114;2022-11-20T01:32:48;2.90;;;2.40;;
11651;SDS011;5882;48.818;9.114;2022-11-20T01:35:17;2.60;;;2.40;;
11651;SDS011;5882;48.818;9.114;2022-11-20T01:37:46;3.47;;;2.67;;
11651;SDS011;5882;48.818;9.114;2022-11-20T01:40:13;2.83;;;2.63;;
11651;SDS011;5882;48.818;9.114;2022-11-20T01:42:43;2.53;;;2.33;;
11651;SDS011;5882;48.818;9.114;2022-11-20T01:48:15;4.82;;;2.58;;
11651;SDS011;5882;48.818;9.114;2022-11-20T01:50:42;3.38;;;2.33;;
11651;SDS011;5882;48.818;9.114;2022-11-20T01:53:11;2.40;;;2.20;;
11651;SDS011;5882;48.818;9.114;2022-11-20T01:55:41;2.03;;;1.92;;
11651;SDS011;5882;48.818;9.114;2022-11-20T01:58:09;2.47;;;2.25;;
11651;SDS011;5882;48.818;9.114;2022-11-20T02:00:36;2.28;;;2.08;;
11651;SDS011;5882;48.818;9.114;2022-11-20T02:03:06;2.42;;;2.22;;
11651;SDS011;5882;48.818;9.114;2022-11-20T02:05:34;2.08;;;1.98;;
11651;SDS011;5882;48.818;9.114;2022-11-20T02:08:02;2.58;;;2.13;;
11651;SDS011;5882;48.818;9.114;2022-11-20T02:10:30;2.05;;;1.90;;
11651;SDS011;5882;48.818;9.114;2022-11-20T02:12:57;1.73;;;1.50;;
11651;SDS011;5882;48.818;9.114;2022-11-20T02:15:41;1.83;;;1.73;;
11651;SDS011;5882;48.818;9.114;2022-11-20T02:18:08;1.73;;;1.60;;
11651;SDS011;5882;48.818;9.114;2022-11-20T02:20:35;2.13;;;1.50;;
11651;SDS011;5882;48.818;9.114;2022-11-20T02:23:03;2.08;;;1.88;;
11651;SDS011;5882;48.818;9.114;2022-11-20T02:25:32;1.60;;;1.50;;
11651;SDS011;5882;48.818;9.114;2022-11-20T02:27:59;1.58;;;1.48;;
11651;SDS011;5882;48.818;9.114;2022-11-20T02:30:26;1.75;;;1.40;;
11651;SDS011;5882;48.818;9.114;2022-11-20T02:32:53;1.73;;;1.60;;
11651;SDS011;5882;48.818;9.114;2022-11-20T02:38:16;1.70;;;1.60;;
11651;SDS011;5882;48.818;9.114;2022-11-20T02:40:45;1.55;;;1.45;;
11651;SDS011;5882;48.818;9.114;2022-11-20T02:43:11;1.85;;;1.50;;
11651;SDS011;5882;48.818;9.114;2022-11-20T02:45:38;1.98;;;1.77;;
11651;SDS011;5882;48.818;9.114;2022-11-20T02:48:05;2.45;;;1.55;;
11651;SDS011;5882;48.818;9.114;2022-11-20T02:50:32;1.50;;;1.40;;
11651;SDS011;5882;48.818;9.114;2022-11-20T02:52:59;1.90;;;1.70;;
11651;SDS011;5882;48.818;9.114;2022-11-20T02:55:25;1.67;;;1.58;;
11651;SDS011;5882;48.818;9.114;2022-11-20T02:57:53;1.60;;;1.50;;
11651;SDS011;5882;48.818;9.114;2022-11-20T03:00:20;1.67;;;1.58;;
11651;SDS011;5882;48.818;9.114;2022-11-20T03:02:46;1.50;;;1.33;;
11651;SDS011;5882;48.818;9.114;2022-11-20T03:05:13;1.70;;;1.60;;
11651;SDS011;5882;48.818;9.114;2022-11-20T03:07:39;1.48;;;1.38;;
11651;SDS011;5882;48.818;9.114;2022-11-20T03:10:06;1.35;;;1.25;;
11651;SDS011;5882;48.818;9.114;2022-11-20T03:12:33;1.98;;;1.60;;
11651;SDS011;5882;48.818;9.114;2022-11-20T03:15:01;1.63;;;1.52;;
11651;SDS011;5882;48.818;9.114;2022-11-20T03:17:27;1.60;;;1.50;;
11651;SDS011;5882;48.818;9.114;2022-11-20T03:20:00;1.55;;;1.45;;
11651;SDS011;5882;48.818;9.114;2022-11-20T03:22:28;3.10;;;1.88;;
11651;SDS011;5882;48.818;9.114;2022-11-20T03:24:55;2.75;;;1.63;;
11651;SDS011;5882;48.818;9.114;2022-11-20T03:27:21;2.53;;;2.38;;
11651;SDS011;5882;48.818;9.114;2022-11-20T03:29:48;1.38;;;1.27;;
11651;SDS011;5882;48.818;9.114;2022-11-20T03:32:16;1.80;;;1.70;;
11651;SDS011;5882;48.818;9.114;2022-11-20T03:34:45;2.15;;;1.95;;
11651;SDS011;5882;48.818;9.114;2022-11-20T03:37:11;1.50;;;1.40;;
11651;SDS011;5882;48.818;9.114;2022-11-20T03:39:38;1.98;;;1.88;;
11651;SDS011;5882;48.818;9.114;2022-11-20T03:42:05;1.58;;;1.48;;
11651;SDS011;5882;48.818;9.114;2022-11-20T03:44:52;1.60;;;1.50;;
11651;SDS011;5882;48.818;9.114;2022-11-20T03:47:27;2.83;;;1.70;;
11651;SDS011;5882;48.818;9.114;2022-11-20T03:49:54;1.70;;;1.60;;
11651;SDS011;5882;48.818;9.114;2022-11-20T03:52:20;1.70;;;1.52;;
11651;SDS011;5882;48.818;9.114;2022-11-20T03:54:47;1.60;;;1.50;;
11651;SDS011;5882;48.818;9.114;2022-11-20T03:57:13;1.60;;;1.50;;
11651;SDS011;5882;48.818;9.114;2022-11-20T03:59:40;2.20;;;2.00;;
11651;SDS011;5882;48.818;9.114;2022-11-20T04:02:06;2.28;;;1.50;;
11651;SDS011;5882;48.818;9.114;2022-11-20T04:04:34;2.70;;;1.75;;
11651;SDS011;5882;48.818;9.114;2022-11-20T04:07:01;1.80;;;1.65;;
11651;SDS011;5882;48.818;9.114;2022-11-20T04:09:28;2.08;;;1.70;;
11651;SDS011;5882;48.818;9.114;2022-11-20T04:11:54;2.03;;;1.70;;
11651;SDS011;5882;48.818;9.114;2022-11-20T04:14:21;1.63;;;1.52;;
11651;SDS011;5882;48.818;9.114;2022-11-20T04:16:47;1.83;;;1.73;;
11651;SDS011;5882;48.818;9.114;2022-11-20T04:19:14;2.10;;;1.90;;
11651;SDS011;5882;48.818;9.114;2022-11-20T04:21:43;1.65;;;1.55;;
11651;SDS011;5882;48.818;9.114;2022-11-20T04:24:10;2.17;;;1.42;;
11651;SDS011;5882;48.818;9.114;2022-11-20T04:26:37;1.48;;;1.38;;
11651;SDS011;5882;48.818;9.114;2022-11-20T04:29:06;1.83;;;1.70;;
11651;SDS011;5882;48.818;9.114;2022-11-20T04:31:35;2.88;;;1.42;;
11651;SDS011;5882;48.818;9.114;2022-11-20T04:34:02;1.38;;;1.27;;
11651;SDS011;5882;48.818;9.114;2022-11-20T04:36:32;1.75;;;1.65;;
11651;SDS011;5882;48.818;9.114;2022-11-20T04:39:01;1.80;;;1.70;;
11651;SDS011;5882;48.818;9.114;2022-11-20T04:41:28;2.00;;;1.55;;
11651;SDS011;5882;48.818;9.114;2022-11-20T04:43:56;1.50;;;1.42;;
11651;SDS011;5882;48.818;9.114;2022-11-20T04:46:25;1.75;;;1.55;;
11651;SDS011;5882;48.818;9.114;2022-11-20T04:48:52;1.50;;;1.40;;
11651;SDS011;5882;48.818;9.114;2022-11-20T04:51:19;1.67;;;1.58;;
11651;SDS011;5882;48.818;9.114;2022-11-20T04:53:45;2.17;;;1.48;;
11651;SDS011;5882;48.818;9.114;2022-11-20T04:56:26;1.92;;;1.83;;
11651;SDS011;5882;48.818;9.114;2022-11-20T04:58:52;1.85;;;1.50;;
11651;SDS011;5882;48.818;9.114;2022-11-20T05:01:23;1.75;;;1.48;;
11651;SDS011;5882;48.818;9.114;2022-11-20T05:04:18;1.60;;;1.50;;
11651;SDS011;5882;48.818;9.114;2022-11-20T05:06:45;1.40;;;1.30;;
11651;SDS011;5882;48.818;9.114;2022-11-20T05:09:12;3.00;;;1.63;;
11651;SDS011;5882;48.818;9.114;2022-11-20T05:11:40;1.85;;;1.65;;
11651;SDS011;5882;48.818;9.114;2022-11-20T05:14:06;1.50;;;1.40;;
11651;SDS011;5882;48.818;9.114;2022-11-20T05:16:51;1.52;;;1.35;;
11651;SDS011;5882;48.818;9.114;2022-11-20T05:19:17;1.48;;;1.38;;
11651;SDS011;5882;48.818;9.114;2022-11-20T05:21:44;1.48;;;1.38;;
11651;SDS011;5882;48.818;9.114;2022-11-20T05:24:11;1.60;;;1.48;;
11651;SDS011;5882;48.818;9.114;2022-11-20T05:26:41;1.60;;;1.50;;
11651;SDS011;5882;48.818;9.114;2022-11-20T05:29:09;1.75;;;1.50;;
11651;SDS011;5882;48.818;9.114;2022-11-20T05:31:36;1.77;;;1.48;;
11651;SDS011;5882;48.818;9.114;2022-11-20T05:34:15;1.55;;;1.33;;
11651;SDS011;5882;48.818;9.114;2022-11-20T05:36:44;1.40;;;1.30;;
11651;SDS011;5882;48.818;9.114;2022-11-20T05:39:13;1.80;;;1.70;;
11651;SDS011;5882;48.818;9.114;2022-11-20T05:41:42;1.73;;;1.63;;
11651;SDS011;5882;48.818;9.114;2022-11-20T05:44:10;1.70;;;1.60;;
11651;SDS011;5882;48.818;9.114;2022-11-20T05:46:37;1.65;;;1.55;;
11651;SDS011;5882;48.818;9.114;2022-11-20T05:49:03;1.60;;;1.50;;
11651;SDS011;5882;48.818;9.114;2022-11-20T05:51:30;1.50;;;1.40;;
11651;SDS011;5882;48.818;9.114;2022-11-20T05:54:06;1.60;;;1.50;;
11651;SDS011;5882;48.818;9.114;2022-11-20T05:56:59;3.28;;;1.90;;
11651;SDS011;5882;48.818;9.114;2022-11-20T05:59:28;1.48;;;1.38;;
11651;SDS011;5882;48.818;9.114;2022-11-20T06:01:55;2.05;;;1.77;;
11651;SDS011;5882;48.818;9.114;2022-11-20T06:04:22;1.70;;;1.60;;
11651;SDS011;5882;48.818;9.114;2022-11-20T06:06:49;1.85;;;1.75;;
11651;SDS011;5882;48.818;9.114;2022-11-20T06:09:15;2.17;;;1.98;;
11651;SDS011;5882;48.818;9.114;2022-11-20T06:11:42;1.60;;;1.50;;
11651;SDS011;5882;48.818;9.114;2022-11-20T06:14:10;1.85;;;1.75;;
11651;SDS011;5882;48.818;9.114;2022-11-20T06:16:36;2.40;;;1.50;;
11651;SDS011;5882;48.818;9.114;2022-11-20T06:19:16;2.13;;;1.55;;
11651;SDS011;5882;48.818;9.114;2022-11-20T06:21:58;1.30;;;1.20;;
11651;SDS011;5882;48.818;9.114;2022-11-20T06:24:24;1.85;;;1.60;;
11651;SDS011;5882;48.818;9.114;2022-11-20T06:26:51;1.85;;;1.38;;
11651;SDS011;5882;48.818;9.114;2022-11-20T06:29:19;3.00;;;1.40;;
11651;SDS011;5882;48.818;9.114;2022-11-20T06:31:46;1.80;;;1.50;;
11651;SDS011;5882;48.818;9.114;2022-11-20T06:34:13;1.52;;;1.42;;
11651;SDS011;5882;48.818;9.114;2022-11-20T06:36:39;1.55;;;1.45;;
11651;SDS011;5882;48.818;9.114;2022-11-20T06:39:16;1.13;;;1.13;;
11651;SDS011;5882;48.818;9.114;2022-11-20T06:41:53;1.38;;;1.27;;
11651;SDS011;5882;48.818;9.114;2022-11-20T06:47:55;1.27;;;1.20;;
11651;SDS011;5882;48.818;9.114;2022-11-20T06:51:07;2.25;;;1.30;;
11651;SDS011;5882;48.818;9.114;2022-11-20T06:53:53;1.75;;;1.30;;
11651;SDS011;5882;48.818;9.114;2022-11-20T06:56:20;1.30;;;1.20;;
11651;SDS011;5882;48.818;9.114;2022-11-20T06:58:46;1.65;;;1.20;;
11651;SDS011;5882;48.818;9.114;2022-11-20T07:01:26;1.35;;;1.25;;
11651;SDS011;5882;48.818;9.114;2022-11-20T07:03:54;1.35;;;1.20;;
11651;SDS011;5882;48.818;9.114;2022-11-20T07:06:21;1.40;;;1.30;;
11651;SDS011;5882;48.818;9.114;2022-11-20T07:08:49;1.17;;;1.08;;
11651;SDS011;5882;48.818;9.114;2022-11-20T07:11:19;1.45;;;1.17;;
11651;SDS011;5882;48.818;9.114;2022-11-20T07:13:46;2.80;;;1.88;;
11651;SDS011;5882;48.818;9.114;2022-11-20T07:16:12;1.58;;;1.40;;
11651;SDS011;5882;48.818;9.114;2022-11-20T07:18:39;1.50;;;1.40;;
11651;SDS011;5882;48.818;9.114;2022-11-20T07:21:08;1.73;;;1.58;;
11651;SDS011;5882;48.818;9.114;2022-11-20T07:23:35;1.50;;;1.40;;
11651;SDS011;5882;48.818;9.114;2022-11-20T07:26:05;2.80;;;1.45;;
11651;SDS011;5882;48.818;9.114;2022-11-20T07:28:34;1.40;;;1.30;;
11651;SDS011;5882;48.818;9.114;2022-11-20T07:31:01;2.10;;;1.90;;
11651;SDS011;5882;48.818;9.114;2022-11-20T07:33:28;2.38;;;1.60;;
11651;SDS011;5882;48.818;9.114;2022-11-20T07:35:54;2.33;;;2.13;;
11651;SDS011;5882;48.818;9.114;2022-11-20T07:38:25;2.13;;;1.60;;
11651;SDS011;5882;48.818;9.114;2022-11-20T07:40:53;1.58;;;1.48;;
11651;SDS011;5882;48.818;9.114;2022-11-20T07:43:21;1.27;;;1.17;;
11651;SDS011;5882;48.818;9.114;2022-11-20T07:45:48;1.35;;;1.25;;
11651;SDS011;5882;48.818;9.114;2022-11-20T07:48:15;1.40;;;1.30;;
11651;SDS011;5882;48.818;9.114;2022-11-20T07:57:10;1.58;;;1.35;;
11651;SDS011;5882;48.818;9.114;2022-11-20T08:06:35;1.50;;;1.40;;
11651;SDS011;5882;48.818;9.114;2022-11-20T08:09:11;1.45;;;1.27;;
11651;SDS011;5882;48.818;9.114;2022-11-20T08:11:37;1.52;;;1.40;;
11651;SDS011;5882;48.818;9.114;2022-11-20T08:14:25;1.65;;;1.55;;
11651;SDS011;5882;48.818;9.114;2022-11-20T08:16:55;1.45;;;1.35;;
11651;SDS011;5882;48.818;9.114;2022-11-20T08:19:24;1.50;;;1.40;;
11651;SDS011;5882;48.818;9.114;2022-11-20T08:21:51;1.58;;;1.38;;
11651;SDS011;5882;48.818;9.114;2022-11-20T08:24:17;1.10;;;1.10;;
11651;SDS011;5882;48.818;9.114;2022-11-20T08:26:47;1.30;;;1.20;;
11651;SDS011;5882;48.818;9.114;2022-11-20T08:29:20;1.52;;;1.42;;
11651;SDS011;5882;48.818;9.114;2022-11-20T08:31:48;1.30;;;1.20;;
11651;SDS011;5882;48.818;9.114;2022-11-20T08:34:14;1.38;;;1.27;;
11651;SDS011;5882;48.818;9.114;2022-11-20T08:36:41;1.10;;;1.00;;
11651;SDS011;5882;48.818;9.114;2022-11-20T08:39:07;1.00;;;1.00;;
11651;SDS011;5882;48.818;9.114;2022-11-20T08:41:34;1.00;;;1.00;;
11651;SDS011;5882;48.818;9.114;2022-11-20T08:44:02;1.30;;;1.20;;
11651;SDS011;5882;48.818;9.114;2022-11-20T08:46:31;1.42;;;1.33;;
11651;SDS011;5882;48.818;9.114;2022-11-20T08:49:03;0.80;;;0.80;;
11651;SDS011;5882;48.818;9.114;2022-11-20T08:51:29;0.90;;;0.90;;
11651;SDS011;5882;48.818;9.114;2022-11-20T08:53:56;1.23;;;1.10;;
11651;SDS011;5882;48.818;9.114;2022-11-20T08:56:23;1.77;;;1.30;;
11651;SDS011;5882;48.818;9.114;2022-11-20T08:58:49;1.00;;;1.00;;
11651;SDS011;5882;48.818;9.114;2022-11-20T09:01:16;1.30;;;1.20;;
11651;SDS011;5882;48.818;9.114;2022-11-20T09:03:42;1.20;;;1.10;;
11651;SDS011;5882;48.818;9.114;2022-11-20T09:06:11;1.20;;;1.10;;
11651;SDS011;5882;48.818;9.114;2022-11-20T09:08:38;0.95;;;0.90;;
11651;SDS011;5882;48.818;9.114;2022-11-20T09:11:05;1.40;;;1.10;;
11651;SDS011;5882;48.818;9.114;2022-11-20T09:13:35;1.20;;;1.10;;
11651;SDS011;5882;48.818;9.114;2022-11-20T09:16:03;1.40;;;1.30;;
11651;SDS011;5882;48.818;9.114;2022-11-20T09:18:31;3.00;;;1.50;;
11651;SDS011;5882;48.818;9.114;2022-11-20T09:20:58;1.30;;;1.17;;
11651;SDS011;5882;48.818;9.114;2022-11-20T09:23:27;1.27;;;1.13;;
11651;SDS011;5882;48.818;9.114;2022-11-20T09:26:03;1.17;;;1.15;;
11651;SDS011;5882;48.818;9.114;2022-11-20T09:28:30;1.02;;;1.02;;
11651;SDS011;5882;48.818;9.114;2022-11-20T09:30:57;1.20;;;1.10;;
11651;SDS011;5882;48.818;9.114;2022-11-20T09:33:23;1.02;;;1.00;;
11651;SDS011;5882;48.818;9.114;2022-11-20T09:35:50;1.10;;;1.00;;
11651;SDS011;5882;48.818;9.114;2022-11-20T09:38:21;0.80;;;0.80;;
11651;SDS011;5882;48.818;9.114;2022-11-20T09:40:51;0.95;;;0.95;;
11651;SDS011;5882;48.818;9.114;2022-11-20T09:43:24;0.80;;;0.80;;
11651;SDS011;5882;48.818;9.114;2022-11-20T09:46:01;1.40;;;1.30;;
11651;SDS011;5882;48.818;9.114;2022-11-20T09:48:43;0.93;;;0.93;;
11651;SDS011;5882;48.818;9.114;2022-11-20T09:51:15;1.05;;;0.93;;
11651;SDS011;5882;48.818;9.114;2022-11-20T09:53:46;0.90;;;0.90;;
11651;SDS011;5882;48.818;9.114;2022-11-20T09:56:17;0.95;;;0.95;;
11651;SDS011;5882;48.818;9.114;2022-11-20T09:58:45;0.80;;;0.80;;
11651;SDS011;5882;48.818;9.114;2022-11-20T10:01:14;0.90;;;0.90;;
11651;SDS011;5882;48.818;9.114;2022-11-20T10:03:45;0.80;;;0.80;;
11651;SDS011;5882;48.818;9.114;2022-11-20T10:06:17;1.00;;;1.00;;
11651;SDS011;5882;48.818;9.114;2022-11-20T10:08:45;0.90;;;0.90;;
11651;SDS011;5882;48.818;9.114;2022-11-20T10:11:26;1.05;;;1.02;;
11651;SDS011;5882;48.818;9.114;2022-11-20T10:13:58;0.80;;;0.80;;
11651;SDS011;5882;48.818;9.114;2022-11-20T10:16:33;0.93;;;0.93;;
11651;SDS011;5882;48.818;9.114;2022-11-20T10:19:06;1.15;;;1.05;;
11651;SDS011;5882;48.818;9.114;2022-11-20T10:21:38;0.90;;;0.90;;
11651;SDS011;5882;48.818;9.114;2022-11-20T10:24:23;2.05;;;0.95;;
11651;SDS011;5882;48.818;9.114;2022-11-20T10:26:56;1.45;;;0.90;;
11651;SDS011;5882;48.818;9.114;2022-11-20T10:29:26;1.25;;;1.15;;
11651;SDS011;5882;48.818;9.114;2022-11-20T10:31:56;1.00;;;1.00;;
11651;SDS011;5882;48.818;9.114;2022-11-20T10:34:24;1.05;;;1.05;;
11651;SDS011;5882;48.818;9.114;2022-11-20T10:36:54;0.90;;;0.90;;
11651;SDS011;5882;48.818;9.114;2022-11-20T10:39:24;1.00;;;1.00;;
11651;SDS011;5882;48.818;9.114;2022-11-20T10:41:52;1.73;;;1.17;;
11651;SDS011;5882;48.818;9.114;2022-11-20T10:44:21;1.27;;;1.17;;
11651;SDS011;5882;48.818;9.114;2022-11-20T10:47:01;1.52;;;1.27;;
11651;SDS011;5882;48.818;9.114;2022-11-20T10:49:29;1.65;;;1.55;;
11651;SDS011;5882;48.818;9.114;2022-11-20T10:51:58;1.33;;;1.23;;
11651;SDS011;5882;48.818;9.114;2022-11-20T10:54:31;1.15;;;1.13;;
11651;SDS011;5882;48.818;9.114;2022-11-20T10:57:00;2.85;;;1.30;;
11651;SDS011;5882;48.818;9.114;2022-11-20T10:59:35;1.35;;;1.25;;
11651;SDS011;5882;48.818;9.114;2022-11-20T11:02:14;1.23;;;1.08;;
11651;SDS011;5882;48.818;9.114;2022-11-20T11:04:42;1.27;;;1.17;;
11651;SDS011;5882;48.818;9.114;2022-11-20T11:07:10;2.17;;;1.50;;
11651;SDS011;5882;48.818;9.114;2022-11-20T11:09:39;1.88;;;1.77;;
11651;SDS011;5882;48.818;9.114;2022-11-20T11:12:07;1.48;;;1.38;;
11651;SDS011;5882;48.818;9.114;2022-11-20T11:14:43;1.30;;;1.20;;
11651;SDS011;5882;48.818;9.114;2022-11-20T11:17:18;1.70;;;1.60;;
11651;SDS011;5882;48.818;9.114;2022-11-20T11:19:47;1.20;;;1.20;;
11651;SDS011;5882;48.818;9.114;2022-11-20T11:22:22;1.05;;;1.05;;
11651;SDS011;5882;48.818;9.114;2022-11-20T11:24:51;1.40;;;1.30;;
11651;SDS011;5882;48.818;9.114;2022-11-20T11:27:18;1.33;;;1.23;;
11651;SDS011;5882;48.818;9.114;2022-11-20T11:29:49;2.45;;;2.13;;
11651;SDS011;5882;48.818;9.114;2022-11-20T11:32:17;1.70;;;1.60;;
11651;SDS011;5882;48.818;9.114;2022-11-20T11:34:57;1.58;;;1.48;;
11651;SDS011;5882;48.818;9.114;2022-11-20T11:37:24;1.42;;;1.33;;
11651;SDS011;5882;48.818;9.114;2022-11-20T11:39:54;1.40;;;1.30;;
11651;SDS011;5882;48.818;9.114;2022-11-20T11:42:20;1.58;;;1.48;;
11651;SDS011;5882;48.818;9.114;2022-11-20T11:44:48;1.40;;;1.25;;
11651;SDS011;5882;48.818;9.114;2022-11-20T11:47:33;1.70;;;1.60;;
11651;SDS011;5882;48.818;9.114;2022-11-20T11:50:07;1.50;;;1.40;;
11651;SDS011;5882;48.818;9.114;2022-11-20T11:52:41;3.33;;;1.52;;
11651;SDS011;5882;48.818;9.114;2022-11-20T11:55:09;1.83;;;1.73;;
11651;SDS011;5882;48.818;9.114;2022-11-20T11:57:41;2.30;;;2.10;;
11651;SDS011;5882;48.818;9.114;2022-11-20T12:00:11;2.58;;;2.38;;
11651;SDS011;5882;48.818;9.114;2022-11-20T12:02:49;3.40;;;2.63;;
11651;SDS011;5882;48.818;9.114;2022-11-20T12:05:24;2.53;;;2.20;;
11651;SDS011;5882;48.818;9.114;2022-11-20T12:07:52;2.00;;;1.90;;
11651;SDS011;5882;48.818;9.114;2022-11-20T12:10:28;2.85;;;1.40;;
11651;SDS011;5882;48.818;9.114;2022-11-20T12:13:01;1.40;;;1.30;;
11651;SDS011;5882;48.818;9.114;2022-11-20T12:15:30;1.40;;;1.30;;
11651;SDS011;5882;48.818;9.114;2022-11-20T12:17:57;1.65;;;1.48;;
11651;SDS011;5882;48.818;9.114;2022-11-20T12:20:27;2.20;;;1.25;;
11651;SDS011;5882;48.818;9.114;2022-11-20T12:22:56;1.27;;;1.20;;
11651;SDS011;5882;48.818;9.114;2022-11-20T12:25:25;1.50;;;1.40;;
11651;SDS011;5882;48.818;9.114;2022-11-20T12:28:06;1.38;;;1.27;;
11651;SDS011;5882;48.818;9.114;2022-11-20T12:30:41;1.13;;;1.08;;
11651;SDS011;5882;48.818;9.114;2022-11-20T12:33:27;2.08;;;1.10;;
11651;SDS011;5882;48.818;9.114;2022-11-20T12:36:03;2.05;;;1.00;;
11651;SDS011;5882;48.818;9.114;2022-11-20T12:38:41;1.00;;;1.00;;
11651;SDS011;5882;48.818;9.114;2022-11-20T12:41:11;1.20;;;1.10;;
11651;SDS011;5882;48.818;9.114;2022-11-20T12:44:12;1.20;;;1.10;;
11651;SDS011;5882;48.818;9.114;2022-11-20T12:47:04;1.52;;;1.05;;
11651;SDS011;5882;48.818;9.114;2022-11-20T12:49:38;0.90;;;0.90;;
11651;SDS011;5882;48.818;9.114;2022-11-20T12:52:14;1.23;;;1.20;;
11651;SDS011;5882;48.818;9.114;2022-11-20T12:54:49;1.20;;;1.10;;
11651;SDS011;5882;48.818;9.114;2022-11-20T12:57:21;1.02;;;1.02;;
11651;SDS011;5882;48.818;9.114;2022-11-20T13:00:02;2.30;;;0.98;;
11651;SDS011;5882;48.818;9.114;2022-11-20T13:02:40;2.58;;;1.23;;
11651;SDS011;5882;48.818;9.114;2022-11-20T13:05:13;0.88;;;0.88;;
11651;SDS011;5882;48.818;9.114;2022-11-20T13:07:43;4.13;;;1.13;;
11651;SDS011;5882;48.818;9.114;2022-11-20T13:10:13;0.85;;;0.80;;
11651;SDS011;5882;48.818;9.114;2022-11-20T13:12:44;0.88;;;0.88;;
11651;SDS011;5882;48.818;9.114;2022-11-20T13:15:15;1.00;;;0.90;;
11651;SDS011;5882;48.818;9.114;2022-11-20T13:17:47;0.77;;;0.77;;
11651;SDS011;5882;48.818;9.114;2022-11-20T13:20:19;0.90;;;0.90;;
11651;SDS011;5882;48.818;9.114;2022-11-20T13:22:50;1.08;;;1.00;;
11651;SDS011;5882;48.818;9.114;2022-11-20T13:25:24;0.90;;;0.90;;
11651;SDS011;5882;48.818;9.114;2022-11-20T13:27:51;1.45;;;1.17;;
11651;SDS011;5882;48.818;9.114;2022-11-20T13:30:19;1.15;;;1.00;;
11651;SDS011;5882;48.818;9.114;2022-11-20T13:32:54;1.10;;;1.00;;
11651;SDS011;5882;48.818;9.114;2022-11-20T13:35:28;1.25;;;1.02;;
11651;SDS011;5882;48.818;9.114;2022-11-20T13:38:05;1.20;;;1.10;;
11651;SDS011;5882;48.818;9.114;2022-11-20T13:40:33;0.88;;;0.88;;
11651;SDS011;5882;48.818;9.114;2022-11-20T13:43:21;2.67;;;0.98;;
11651;SDS011;5882;48.818;9.114;2022-11-20T13:45:58;0.80;;;0.80;;
11651;SDS011;5882;48.818;9.114;2022-11-20T13:48:28;0.82;;;0.82;;
11651;SDS011;5882;48.818;9.114;2022-11-20T13:53:44;0.90;;;0.90;;
11651;SDS011;5882;48.818;9.114;2022-11-20T13:56:15;0.82;;;0.82;;
11651;SDS011;5882;48.818;9.114;2022-11-20T13:58:48;0.88;;;0.88;;
11651;SDS011;5882;48.818;9.114;2022-11-20T14:01:19;0.80;;;0.80;;
11651;SDS011;5882;48.818;9.114;2022-11-20T14:03:47;0.98;;;0.95;;
11651;SDS011;5882;48.818;9.114;2022-11-20T14:06:15;0.80;;;0.80;;
11651;SDS011;5882;48.818;9.114;2022-11-20T14:08:49;0.90;;;0.90;;
11651;SDS011;5882;48.818;9.114;2022-11-20T14:11:16;0.90;;;0.90;;
11651;SDS011;5882;48.818;9.114;2022-11-20T14:13:53;0.80;;;0.80;;
11651;SDS011;5882;48.818;9.114;2022-11-20T14:16:21;0.75;;;0.75;;
11651;SDS011;5882;48.818;9.114;2022-11-20T14:18:49;0.90;;;0.90;;
11651;SDS011;5882;48.818;9.114;2022-11-20T14:21:21;0.88;;;0.88;;
11651;SDS011;5882;48.818;9.114;2022-11-20T14:23:47;1.20;;;1.10;;
11651;SDS011;5882;48.818;9.114;2022-11-20T14:26:14;1.95;;;1.20;;
11651;SDS011;5882;48.818;9.114;2022-11-20T14:28:42;1.30;;;1.20;;
11651;SDS011;5882;48.818;9.114;2022-11-20T14:31:09;1.23;;;1.10;;
11651;SDS011;5882;48.818;9.114;2022-11-20T14:33:43;1.92;;;1.10;;
11651;SDS011;5882;48.818;9.114;2022-11-20T14:36:16;1.20;;;1.10;;
11651;SDS011;5882;48.818;9.114;2022-11-20T14:38:44;0.93;;;0.93;;
11651;SDS011;5882;48.818;9.114;2022-11-20T14:41:16;1.00;;;1.00;;
11651;SDS011;5882;48.818;9.114;2022-11-20T14:43:44;1.17;;;1.08;;
11651;SDS011;5882;48.818;9.114;2022-11-20T14:46:11;3.13;;;0.93;;
11651;SDS011;5882;48.818;9.114;2022-11-20T14:48:38;1.27;;;1.13;;
11651;SDS011;5882;48.818;9.114;2022-11-20T14:51:05;1.20;;;1.10;;
11651;SDS011;5882;48.818;9.114;2022-11-20T14:53:35;1.20;;;1.10;;
11651;SDS011;5882;48.818;9.114;2022-11-20T14:56:04;1.50;;;1.40;;
11651;SDS011;5882;48.818;9.114;2022-11-20T14:58:31;1.65;;;1.55;;
11651;SDS011;5882;48.818;9.114;2022-11-20T15:00:59;1.98;;;1.88;;
11651;SDS011;5882;48.818;9.114;2022-11-20T15:03:30;2.80;;;2.60;;
11651;SDS011;5882;48.818;9.114;2022-11-20T15:05:57;1.70;;;1.42;;
11651;SDS011;5882;48.818;9.114;2022-11-20T15:08:24;2.78;;;2.05;;
11651;SDS011;5882;48.818;9.114;2022-11-20T15:10:52;1.55;;;1.45;;
11651;SDS011;5882;48.818;9.114;2022-11-20T15:13:24;1.70;;;1.60;;
11651;SDS011;5882;48.818;9.114;2022-11-20T15:15:58;2.70;;;2.50;;
11651;SDS011;5882;48.818;9.114;2022-11-20T15:18:33;3.15;;;1.42;;
11651;SDS011;5882;48.818;9.114;2022-11-20T15:21:03;2.47;;;1.85;;
11651;SDS011;5882;48.818;9.114;2022-11-20T15:23:30;1.38;;;1.27;;
11651;SDS011;5882;48.818;9.114;2022-11-20T15:26:01;1.60;;;1.50;;
11651;SDS011;5882;48.818;9.114;2022-11-20T15:28:38;1.45;;;1.35;;
11651;SDS011;5882;48.818;9.114;2022-11-20T15:31:05;1.30;;;1.20;;
11651;SDS011;5882;48.818;9.114;2022-11-20T15:33:40;1.30;;;1.23;;
11651;SDS011;5882;48.818;9.114;2022-11-20T15:36:10;3.35;;;1.23;;
11651;SDS011;5882;48.818;9.114;2022-11-20T15:38:37;1.27;;;1.25;;
11651;SDS011;5882;48.818;9.114;2022-11-20T15:41:04;1.58;;;1.48;;
11651;SDS011;5882;48.818;9.114;2022-11-20T15:43:31;2.13;;;1.92;;
11651;SDS011;5882;48.818;9.114;2022-11-20T15:46:01;1.58;;;1.05;;